Time;durP1;ratioP1;P1;durP2;ratioP2;P2;SDS_P1;SDS_P2;PMS_P1;PMS_P2;Temp;Humidity;BMP_temperature;BMP_pressure;BME280_temperature;BME280_humidity;BME280_pressure;Samples;Min_cycle;Max_cycle;Signal;HPM_P1;HPM_P2
2024/02/12 00:00:27;;;;;;;28.37;13.03;;;7.80;99.90;;;;;;4111883;28;20554;-68
2024/02/12 00:02:28;;;;;;;28.90;12.33;;;7.70;99.90;;;;;;4097287;28;20043;-63
2024/02/12 00:04:30;;;;;;;29.00;13.10;;;7.70;99.90;;;;;;4100322;28;20039;-60
2024/02/12 00:06:31;;;;;;;23.57;12.57;;;7.70;99.90;;;;;;4112966;28;20090;-66
2024/02/12 00:08:32;;;;;;;35.50;16.23;;;7.70;99.90;;;;;;4111910;28;20085;-58
2024/02/12 00:10:34;;;;;;;32.50;14.07;;;7.70;99.90;;;;;;4111248;28;20566;-60
2024/02/12 00:12:36;;;;;;;27.80;12.47;;;7.70;99.90;;;;;;4112245;28;20093;-67
2024/02/12 00:14:38;;;;;;;26.00;14.27;;;7.70;99.90;;;;;;4116038;28;20031;-62
2024/02/12 00:16:40;;;;;;;30.93;14.63;;;7.70;99.90;;;;;;4114667;28;20075;-64
2024/02/12 00:18:42;;;;;;;32.60;14.10;;;7.70;99.90;;;;;;4109310;28;20432;-64
2024/02/12 00:20:43;;;;;;;29.67;12.77;;;7.70;99.90;;;;;;4102408;28;20039;-60
2024/02/12 00:22:44;;;;;;;27.20;13.40;;;7.70;99.90;;;;;;4115684;28;20066;-65
2024/02/12 00:24:46;;;;;;;25.37;11.33;;;7.70;99.90;;;;;;4112931;28;20093;-64
2024/02/12 00:26:47;;;;;;;30.07;12.80;;;7.70;99.90;;;;;;4115815;28;20109;-63
2024/02/12 00:28:48;;;;;;;29.87;13.13;;;7.70;99.90;;;;;;4112178;28;20111;-67
2024/02/12 00:30:49;;;;;;;27.30;12.20;;;7.70;99.90;;;;;;4112009;28;20089;-62
2024/02/12 00:32:52;;;;;;;27.50;11.33;;;7.60;99.90;;;;;;4115249;28;20042;-59
2024/02/12 00:34:57;;;;;;;27.03;11.33;;;7.60;99.90;;;;;;4113710;28;20038;-63
2024/02/12 00:36:58;;;;;;;28.80;11.47;;;7.60;99.90;;;;;;4115667;28;20447;-57
2024/02/12 00:38:59;;;;;;;30.67;14.37;;;7.60;99.90;;;;;;4113006;28;20031;-60
2024/02/12 00:41:00;;;;;;;41.60;17.47;;;7.50;99.90;;;;;;4104157;28;20039;-64
2024/02/12 00:43:02;;;;;;;39.27;17.57;;;7.50;99.90;;;;;;4099531;28;20075;-66
2024/02/12 00:45:07;;;;;;;27.93;13.10;;;7.40;99.90;;;;;;4099560;28;20039;-64
2024/02/12 00:47:08;;;;;;;25.10;10.53;;;7.40;99.90;;;;;;4098419;29;20468;-60
2024/02/12 00:49:10;;;;;;;22.37;10.47;;;7.40;99.90;;;;;;4113988;28;20462;-64
2024/02/12 00:51:12;;;;;;;27.93;12.10;;;7.40;99.90;;;;;;4114154;28;20483;-62
2024/02/12 00:53:13;;;;;;;29.27;13.30;;;7.40;99.90;;;;;;4103529;28;20039;-63
2024/02/12 00:55:15;;;;;;;28.07;13.83;;;7.30;99.90;;;;;;4098687;28;20035;-61
2024/02/12 00:57:16;;;;;;;36.13;14.03;;;7.30;99.90;;;;;;4100388;28;20039;-64
2024/02/12 00:59:18;;;;;;;29.77;12.17;;;7.40;99.90;;;;;;4108400;28;20047;-61
2024/02/12 01:01:19;;;;;;;29.13;10.60;;;7.30;99.90;;;;;;4105962;28;20098;-63
2024/02/12 01:03:22;;;;;;;26.20;11.67;;;7.40;99.90;;;;;;4106631;28;20031;-64
2024/02/12 01:05:23;;;;;;;22.10;10.80;;;7.40;99.90;;;;;;4114442;28;20035;-63
2024/02/12 01:07:25;;;;;;;26.47;10.40;;;7.40;99.90;;;;;;4115089;28;20023;-63
2024/02/12 01:09:27;;;;;;;27.37;10.87;;;7.40;99.90;;;;;;4114514;28;20101;-60
2024/02/12 01:11:28;;;;;;;24.03;10.27;;;7.40;99.90;;;;;;4100437;28;20677;-58
2024/02/12 01:13:29;;;;;;;19.50;8.87;;;7.40;99.90;;;;;;4105785;28;20042;-62
2024/02/12 01:15:30;;;;;;;17.93;8.20;;;7.40;99.90;;;;;;4114756;28;20050;-60
2024/02/12 01:17:32;;;;;;;21.03;9.63;;;7.40;99.90;;;;;;4114101;28;20461;-59
2024/02/12 01:19:36;;;;;;;21.20;9.30;;;7.40;99.90;;;;;;4114882;28;20046;-61
2024/02/12 01:21:37;;;;;;;21.87;9.87;;;7.40;99.90;;;;;;4113910;28;20048;-59
2024/02/12 01:23:38;;;;;;;30.03;10.10;;;7.40;99.90;;;;;;4098993;28;20483;-58
2024/02/12 01:25:42;;;;;;;16.73;9.13;;;7.30;99.90;;;;;;4103847;28;20093;-59
2024/02/12 01:27:44;;;;;;;22.20;8.57;;;7.30;99.90;;;;;;4110318;28;20095;-60
2024/02/12 01:29:47;;;;;;;21.63;10.37;;;7.30;99.90;;;;;;4099887;28;20378;-65
2024/02/12 01:31:49;;;;;;;18.97;8.70;;;7.20;99.90;;;;;;4098942;29;20027;-62
2024/02/12 01:33:52;;;;;;;22.40;8.23;;;7.20;99.90;;;;;;4104036;28;20054;-59
2024/02/12 01:35:53;;;;;;;19.37;9.53;;;7.10;99.90;;;;;;4114290;28;20097;-64
2024/02/12 01:37:54;;;;;;;23.83;8.97;;;7.00;99.90;;;;;;4113773;28;20368;-64
2024/02/12 01:39:56;;;;;;;21.83;9.03;;;7.00;99.90;;;;;;4112354;28;20031;-67
2024/02/12 01:41:57;;;;;;;31.03;10.00;;;6.90;99.90;;;;;;4111978;28;20023;-65
2024/02/12 01:43:58;;;;;;;20.30;9.77;;;6.90;99.90;;;;;;4098608;28;20439;-60
2024/02/12 01:46:00;;;;;;;21.10;10.67;;;6.90;99.90;;;;;;4098466;28;20090;-57
2024/02/12 01:48:02;;;;;;;24.20;9.80;;;6.90;99.90;;;;;;4098402;28;20039;-61
2024/02/12 01:50:04;;;;;;;21.17;9.37;;;6.90;99.90;;;;;;4114231;28;20106;-64
2024/02/12 01:52:05;;;;;;;18.57;9.00;;;6.90;99.90;;;;;;4108803;28;20082;-57
2024/02/12 01:54:07;;;;;;;21.90;10.40;;;6.90;99.90;;;;;;4098419;28;20043;-59
2024/02/12 01:56:10;;;;;;;24.97;9.73;;;6.90;99.90;;;;;;4097727;28;20095;-56
2024/02/12 01:58:16;;;;;;;20.30;9.00;;;7.00;99.90;;;;;;4099458;28;20055;-59
2024/02/12 02:00:19;;;;;;;25.13;9.57;;;7.00;99.90;;;;;;4098284;28;20094;-63
2024/02/12 02:02:20;;;;;;;24.57;8.90;;;7.00;99.90;;;;;;4098880;28;20389;-63
2024/02/12 02:04:24;;;;;;;23.20;9.17;;;7.00;99.90;;;;;;4112819;28;20066;-64
2024/02/12 02:06:25;;;;;;;18.23;8.40;;;7.00;99.90;;;;;;4114348;28;20035;-63
2024/02/12 02:08:39;;;;;;;20.07;9.10;;;7.10;99.90;;;;;;4113103;28;20136;-62
2024/02/12 02:10:40;;;;;;;18.13;8.43;;;7.00;99.90;;;;;;4099092;28;20043;-61
2024/02/12 02:12:42;;;;;;;20.50;7.70;;;7.00;99.90;;;;;;4097445;28;20035;-63
2024/02/12 02:14:45;;;;;;;21.10;8.80;;;7.00;99.90;;;;;;4096180;29;20060;-67
2024/02/12 02:16:47;;;;;;;15.53;8.20;;;7.00;99.90;;;;;;4097449;28;20058;-61
2024/02/12 02:18:50;;;;;;;15.73;7.73;;;7.00;99.90;;;;;;4097441;28;20035;-61
2024/02/12 02:20:51;;;;;;;16.70;7.53;;;7.00;99.90;;;;;;4101188;28;20047;-59
2024/02/12 02:22:54;;;;;;;18.00;7.77;;;7.00;99.90;;;;;;4113118;28;20027;-60
2024/02/12 02:24:57;;;;;;;15.57;7.93;;;7.00;99.90;;;;;;4098338;28;20027;-58
2024/02/12 02:26:58;;;;;;;15.20;7.07;;;7.00;99.90;;;;;;4097328;28;20078;-61
2024/02/12 02:29:00;;;;;;;16.40;7.80;;;7.00;99.90;;;;;;4098013;28;20098;-64
2024/02/12 02:31:01;;;;;;;21.30;8.90;;;7.00;99.90;;;;;;4096471;28;20102;-65
2024/02/12 02:33:03;;;;;;;24.67;8.90;;;6.90;99.90;;;;;;4099913;28;20086;-66
2024/02/12 02:35:05;;;;;;;17.10;8.27;;;6.90;99.90;;;;;;4112572;28;20110;-59
2024/02/12 02:37:06;;;;;;;16.10;7.73;;;6.90;99.90;;;;;;4113753;28;20077;-65
2024/02/12 02:39:07;;;;;;;22.43;8.33;;;6.90;99.90;;;;;;4111013;28;20046;-63
2024/02/12 02:41:08;;;;;;;15.73;8.00;;;6.80;99.90;;;;;;4109358;28;20050;-61
2024/02/12 02:43:10;;;;;;;24.57;7.87;;;6.80;99.90;;;;;;4102522;28;20078;-60
2024/02/12 02:45:12;;;;;;;22.63;9.17;;;6.80;99.90;;;;;;4097441;28;20388;-60
2024/02/12 02:47:13;;;;;;;20.50;8.03;;;6.80;99.90;;;;;;4098867;28;20023;-66
2024/02/12 02:49:15;;;;;;;20.07;6.47;;;6.80;99.90;;;;;;4113135;28;20557;-60
2024/02/12 02:51:34;;;;;;;17.03;7.00;;;6.80;99.90;;;;;;4111836;28;20066;-62
2024/02/12 02:53:35;;;;;;;12.80;6.30;;;6.80;99.90;;;;;;4098228;28;20094;-60
2024/02/12 02:55:37;;;;;;;13.03;7.03;;;6.80;99.90;;;;;;4111566;28;20031;-59
2024/02/12 02:57:38;;;;;;;19.30;7.60;;;6.80;99.90;;;;;;4111020;28;20034;-61
2024/02/12 02:59:41;;;;;;;18.90;8.57;;;6.80;99.90;;;;;;4105733;28;20031;-61
2024/02/12 03:01:43;;;;;;;23.03;9.27;;;6.80;99.90;;;;;;4096408;28;20107;-61
2024/02/12 03:03:48;;;;;;;16.77;8.93;;;6.70;99.90;;;;;;4097475;28;20106;-60
2024/02/12 03:05:50;;;;;;;23.97;10.20;;;6.60;99.90;;;;;;4096206;28;20376;-62
2024/02/12 03:07:51;;;;;;;23.40;9.90;;;6.50;99.90;;;;;;4098514;28;20117;-62
2024/02/12 03:09:52;;;;;;;21.90;9.43;;;6.50;99.90;;;;;;4098628;28;20105;-61
2024/02/12 03:11:54;;;;;;;19.37;8.90;;;6.40;99.90;;;;;;4111215;28;20525;-63
2024/02/12 03:13:56;;;;;;;26.60;9.27;;;6.40;99.90;;;;;;4096222;28;20519;-66
2024/02/12 03:15:57;;;;;;;17.53;7.70;;;6.40;99.90;;;;;;4096957;28;20047;-59
2024/02/12 03:17:59;;;;;;;20.10;8.30;;;6.30;99.90;;;;;;4100067;28;20082;-58
2024/02/12 03:20:00;;;;;;;20.50;8.57;;;6.30;99.90;;;;;;4111602;28;20030;-60
2024/02/12 03:22:01;;;;;;;21.27;9.00;;;6.30;99.90;;;;;;4096330;29;20016;-63
2024/02/12 03:24:03;;;;;;;26.90;12.63;;;6.30;99.90;;;;;;4102166;28;20051;-65
2024/02/12 03:26:06;;;;;;;23.83;10.63;;;6.30;99.90;;;;;;4107087;28;20353;-61
2024/02/12 03:28:07;;;;;;;20.83;9.70;;;6.20;99.90;;;;;;4096620;28;20055;-62
2024/02/12 03:30:09;;;;;;;22.90;10.43;;;6.20;99.90;;;;;;4098306;28;20035;-58
2024/02/12 03:32:11;;;;;;;18.77;8.87;;;6.10;99.90;;;;;;4112321;28;20074;-61
2024/02/12 03:34:13;;;;;;;18.57;8.83;;;6.10;99.90;;;;;;4109118;28;20467;-59
2024/02/12 03:36:15;;;;;;;25.73;10.00;;;6.10;99.90;;;;;;4111815;28;20074;-58
2024/02/12 03:38:17;;;;;;;23.43;9.30;;;6.00;99.90;;;;;;4112549;28;20055;-60
2024/02/12 03:40:18;;;;;;;24.50;9.90;;;6.00;99.90;;;;;;4110194;28;20042;-60
2024/02/12 03:42:26;;;;;;;18.73;9.13;;;6.00;99.90;;;;;;4109175;28;20039;-60
2024/02/12 03:44:27;;;;;;;20.70;10.17;;;6.00;99.90;;;;;;4094873;28;20094;-60
2024/02/12 03:46:31;;;;;;;24.90;10.50;;;5.90;99.90;;;;;;4097139;28;20039;-60
2024/02/12 04:00:19;;;;;;;25.60;10.13;;;5.80;99.90;;;;;;4112522;28;20081;-60
2024/02/12 04:02:21;;;;;;;22.70;10.53;;;5.80;99.90;;;;;;4110064;28;20031;-57
2024/02/12 04:04:23;;;;;;;21.30;9.43;;;5.80;99.90;;;;;;4112601;28;20035;-56
2024/02/12 04:06:24;;;;;;;19.77;9.07;;;5.80;99.90;;;;;;4111600;28;20093;-59
2024/02/12 04:08:25;;;;;;;20.13;7.87;;;5.70;99.90;;;;;;4112721;28;20039;-59
2024/02/12 04:10:28;;;;;;;19.97;7.73;;;5.70;99.90;;;;;;4109719;28;20031;-60
2024/02/12 04:12:31;;;;;;;19.17;7.30;;;5.70;99.90;;;;;;4106889;28;20047;-59
2024/02/12 04:14:32;;;;;;;18.27;7.80;;;5.70;99.90;;;;;;4095609;28;20102;-58
2024/02/12 04:16:33;;;;;;;19.27;6.97;;;5.70;99.90;;;;;;4097634;28;20629;-56
2024/02/12 04:18:35;;;;;;;17.63;6.43;;;5.70;99.90;;;;;;4095549;28;20102;-59
2024/02/12 04:20:39;;;;;;;14.03;6.37;;;5.70;99.90;;;;;;4096582;28;20113;-59
2024/02/12 04:22:41;;;;;;;13.33;6.07;;;5.80;99.90;;;;;;4095554;29;20082;-61
2024/02/12 04:24:43;;;;;;;10.73;5.23;;;5.80;99.90;;;;;;4096479;29;20036;-58
2024/02/12 04:26:44;;;;;;;18.83;6.63;;;5.80;99.90;;;;;;4097280;28;20432;-59
2024/02/12 04:28:46;;;;;;;12.53;5.37;;;5.80;99.90;;;;;;4100087;28;20040;-60
2024/02/12 04:30:47;;;;;;;11.53;4.77;;;5.80;99.90;;;;;;4106448;28;20043;-60
2024/02/12 04:32:48;;;;;;;11.33;5.70;;;5.90;99.90;;;;;;4107450;28;20097;-62
2024/02/12 04:34:50;;;;;;;18.97;6.83;;;5.90;99.90;;;;;;4096522;29;20468;-61
2024/02/12 04:36:55;;;;;;;21.87;10.43;;;5.80;99.90;;;;;;4095455;29;20031;-59
2024/02/12 04:38:56;;;;;;;26.10;9.97;;;5.80;99.90;;;;;;4096402;28;20443;-59
2024/02/12 04:40:58;;;;;;;23.40;10.20;;;5.50;99.90;;;;;;4096767;28;20036;-60
2024/02/12 04:43:00;;;;;;;24.20;10.67;;;5.30;99.90;;;;;;4101564;28;20459;-64
2024/02/12 04:45:01;;;;;;;34.00;11.53;;;5.10;99.90;;;;;;4111204;28;20538;-64
2024/02/12 04:47:04;;;;;;;22.30;10.23;;;5.00;99.90;;;;;;4110843;28;20081;-59
2024/02/12 04:49:05;;;;;;;22.57;9.87;;;5.00;99.90;;;;;;4095495;29;20032;-60
2024/02/12 04:51:06;;;;;;;27.90;10.00;;;5.10;99.90;;;;;;4096337;28;20381;-60
2024/02/12 04:53:07;;;;;;;22.37;9.70;;;5.10;99.90;;;;;;4095169;29;20074;-59
2024/02/12 04:55:12;;;;;;;21.77;10.17;;;5.00;99.90;;;;;;4096325;29;20506;-63
2024/02/12 04:57:13;;;;;;;17.57;9.73;;;5.10;99.90;;;;;;4095600;29;20023;-61
2024/02/12 04:59:21;;;;;;;25.20;10.27;;;5.00;99.90;;;;;;4098853;28;20432;-60
2024/02/12 05:01:26;;;;;;;21.93;10.23;;;5.00;99.90;;;;;;4114195;28;20050;-63
2024/02/12 05:03:27;;;;;;;21.20;9.53;;;5.00;99.90;;;;;;4114715;28;20027;-58
2024/02/12 05:05:29;;;;;;;22.10;9.77;;;4.90;99.90;;;;;;4107947;28;20393;-62
2024/02/12 05:07:31;;;;;;;19.60;9.53;;;4.90;99.90;;;;;;4100372;28;20031;-60
2024/02/12 05:09:32;;;;;;;19.90;9.47;;;4.90;99.90;;;;;;4114562;28;20331;-61
2024/02/12 05:11:33;;;;;;;21.27;9.07;;;4.80;99.90;;;;;;4101757;28;20093;-60
2024/02/12 05:13:35;;;;;;;24.00;11.87;;;4.80;99.90;;;;;;4098757;28;20682;-60
2024/02/12 05:15:37;;;;;;;25.47;14.33;;;4.80;99.90;;;;;;4106916;28;20738;-62
2024/02/12 05:17:55;;;;;;;35.13;17.90;;;4.80;99.90;;;;;;4114782;28;20039;-62
2024/02/12 05:22:34;;;;;;;34.45;14.52;;;4.90;99.90;;;;;;4099887;28;20553;-58
2024/02/12 05:24:35;;;;;;;27.90;11.50;;;4.90;99.90;;;;;;4102795;28;20058;-61
2024/02/12 05:26:38;;;;;;;19.30;9.60;;;5.00;99.90;;;;;;4101193;28;20048;-60
2024/02/12 05:28:39;;;;;;;17.67;8.80;;;5.00;99.90;;;;;;4113704;28;20090;-60
2024/02/12 05:30:41;;;;;;;27.13;9.83;;;4.90;99.90;;;;;;4103715;28;20043;-60
2024/02/12 05:32:42;;;;;;;21.40;9.53;;;4.90;99.90;;;;;;4102664;28;20034;-61
2024/02/12 05:34:43;;;;;;;15.77;8.77;;;4.90;99.90;;;;;;4114466;28;20039;-61
2024/02/12 05:36:45;;;;;;;21.67;10.00;;;4.80;99.90;;;;;;4104336;28;20819;-60
2024/02/12 05:38:49;;;;;;;21.00;9.70;;;4.80;99.90;;;;;;4098658;29;20373;-60
2024/02/12 05:40:50;;;;;;;21.63;8.93;;;4.70;99.90;;;;;;4097386;29;20035;-59
2024/02/12 05:42:51;;;;;;;18.97;9.57;;;4.80;99.90;;;;;;4099701;28;20110;-61
2024/02/12 05:44:54;;;;;;;21.33;9.13;;;4.80;99.90;;;;;;4097486;28;20039;-60
2024/02/12 05:46:55;;;;;;;21.27;8.07;;;4.90;99.90;;;;;;4098081;29;20027;-60
2024/02/12 05:48:58;;;;;;;18.70;9.50;;;4.90;99.90;;;;;;4096914;29;20035;-60
2024/02/12 05:50:59;;;;;;;16.23;8.07;;;4.90;99.90;;;;;;4098761;28;20082;-60
2024/02/12 05:53:00;;;;;;;17.83;8.43;;;4.90;99.90;;;;;;4097904;28;20043;-62
2024/02/12 05:55:02;;;;;;;14.00;8.40;;;5.00;99.90;;;;;;4097564;28;20515;-60
2024/02/12 05:57:04;;;;;;;19.23;8.00;;;5.00;99.90;;;;;;4098793;29;20035;-60
2024/02/12 05:59:06;;;;;;;17.83;8.50;;;5.10;99.90;;;;;;4098290;28;20063;-59
2024/02/12 06:01:07;;;;;;;19.87;7.87;;;5.10;99.90;;;;;;4096680;29;20082;-61
2024/02/12 06:03:08;;;;;;;16.20;7.30;;;5.10;99.90;;;;;;4096037;29;20031;-61
2024/02/12 06:05:10;;;;;;;20.13;8.40;;;5.10;99.90;;;;;;4097269;29;20175;-60
2024/02/12 06:07:11;;;;;;;15.67;8.00;;;5.20;99.90;;;;;;4096698;29;20090;-60
2024/02/12 06:09:12;;;;;;;13.67;7.53;;;5.20;99.90;;;;;;4098331;28;20574;-59
2024/02/12 06:11:14;;;;;;;30.57;10.70;;;5.30;99.90;;;;;;4096184;28;20047;-60
2024/02/12 06:13:17;;;;;;;27.50;10.53;;;5.30;99.90;;;;;;4098168;29;20043;-61
2024/02/12 06:15:18;;;;;;;28.10;12.67;;;5.20;99.90;;;;;;4096630;29;20024;-61
2024/02/12 06:17:19;;;;;;;23.27;10.87;;;5.10;99.90;;;;;;4097838;29;20031;-63
2024/02/12 06:19:21;;;;;;;30.90;12.20;;;5.00;99.90;;;;;;4096725;29;20066;-56
2024/02/12 06:21:22;;;;;;;26.37;12.57;;;5.00;99.90;;;;;;4097497;29;20027;-61
2024/02/12 06:23:25;;;;;;;38.63;15.27;;;4.90;99.90;;;;;;4097361;29;20031;-61
2024/02/12 06:25:26;;;;;;;27.20;14.10;;;4.90;99.90;;;;;;4097523;28;20547;-64
2024/02/12 06:27:27;;;;;;;34.63;15.47;;;4.90;99.90;;;;;;4098281;28;20460;-63
2024/02/12 06:29:28;;;;;;;36.30;16.47;;;5.00;99.90;;;;;;4096869;28;20503;-61
2024/02/12 06:31:31;;;;;;;31.83;15.23;;;5.00;99.90;;;;;;4097760;28;20578;-60
2024/02/12 06:33:32;;;;;;;30.17;16.07;;;5.00;99.90;;;;;;4096653;28;20047;-60
2024/02/12 06:35:34;;;;;;;32.30;14.97;;;5.00;99.90;;;;;;4097920;28;20055;-59
2024/02/12 06:37:35;;;;;;;31.50;12.97;;;5.00;99.90;;;;;;4096415;29;20035;-63
2024/02/12 06:39:38;;;;;;;41.73;14.53;;;5.10;99.90;;;;;;4097674;29;20266;-60
2024/02/12 06:41:44;;;;;;;36.20;15.80;;;5.20;99.90;;;;;;4110980;28;20042;-60
2024/02/12 06:43:45;;;;;;;32.13;15.30;;;5.30;99.90;;;;;;4097030;28;20039;-61
2024/02/12 06:45:48;;;;;;;37.17;17.13;;;5.50;99.90;;;;;;4096347;29;20269;-60
2024/02/12 06:47:49;;;;;;;37.77;13.23;;;5.60;99.90;;;;;;4097461;28;20480;-61
2024/02/12 06:49:51;;;;;;;31.70;14.40;;;5.60;99.90;;;;;;4096683;28;20035;-60
2024/02/12 06:51:52;;;;;;;30.80;12.87;;;5.60;99.90;;;;;;4097563;28;20102;-60
2024/02/12 06:53:53;;;;;;;23.77;12.10;;;5.70;99.90;;;;;;4096854;28;20455;-58
2024/02/12 06:55:54;;;;;;;21.77;10.30;;;5.70;99.90;;;;;;4097366;28;20043;-60
2024/02/12 06:57:57;;;;;;;17.47;8.97;;;5.70;99.90;;;;;;4097203;29;20037;-60
2024/02/12 06:59:58;;;;;;;25.53;10.87;;;5.70;99.90;;;;;;4096932;28;20032;-62
2024/02/12 07:01:59;;;;;;;23.47;9.07;;;5.80;99.90;;;;;;4096871;29;20526;-62
2024/02/12 07:04:01;;;;;;;19.20;10.90;;;5.90;99.90;;;;;;4096508;28;20448;-62
2024/02/12 07:06:02;;;;;;;23.47;10.30;;;6.00;99.90;;;;;;4097063;29;20031;-61
2024/02/12 07:08:04;;;;;;;25.87;9.60;;;6.30;99.90;;;;;;4096158;29;20031;-60
2024/02/12 07:10:06;;;;;;;31.13;11.50;;;6.50;99.90;;;;;;4097251;29;20467;-61
2024/02/12 07:12:08;;;;;;;33.83;10.00;;;6.70;99.90;;;;;;4096137;29;20095;-61
2024/02/12 07:14:09;;;;;;;29.10;10.60;;;6.80;99.90;;;;;;4097418;28;20047;-60
2024/02/12 07:16:17;;;;;;;34.80;9.90;;;6.70;99.90;;;;;;4095927;28;20059;-60
2024/02/12 07:18:19;;;;;;;30.03;10.63;;;6.80;99.90;;;;;;4097453;28;20083;-62
2024/02/12 07:20:20;;;;;;;34.17;10.93;;;7.00;99.90;;;;;;4096083;29;20522;-60
2024/02/12 07:22:21;;;;;;;23.83;9.90;;;7.10;99.90;;;;;;4096349;28;20031;-60
2024/02/12 07:24:23;;;;;;;22.10;10.03;;;7.20;99.90;;;;;;4096013;29;20023;-62
2024/02/12 07:26:24;;;;;;;43.17;13.07;;;7.40;99.90;;;;;;4097169;28;20086;-62
2024/02/12 07:28:25;;;;;;;44.70;12.03;;;7.50;99.90;;;;;;4095939;28;20499;-62
2024/02/12 07:30:26;;;;;;;32.40;11.77;;;7.60;99.90;;;;;;4096491;28;20114;-62
2024/02/12 07:32:28;;;;;;;25.07;10.53;;;7.70;99.90;;;;;;4096626;29;20113;-63
2024/02/12 07:34:29;;;;;;;24.20;10.00;;;7.80;99.90;;;;;;4095981;29;20480;-62
2024/02/12 07:36:30;;;;;;;26.40;11.50;;;7.90;99.90;;;;;;4096946;29;20039;-60
2024/02/12 07:38:32;;;;;;;37.63;12.07;;;7.90;99.90;;;;;;4095962;28;20035;-60
2024/02/12 07:40:33;;;;;;;29.63;12.10;;;8.00;99.90;;;;;;4095687;28;20039;-59
2024/02/12 07:42:35;;;;;;;27.87;11.50;;;8.10;99.90;;;;;;4095778;29;20023;-59
2024/02/12 07:44:37;;;;;;;25.83;12.57;;;8.20;99.90;;;;;;4097163;28;20047;-61
2024/02/12 07:46:38;;;;;;;32.37;13.00;;;8.30;99.90;;;;;;4095675;29;20031;-59
2024/02/12 07:48:41;;;;;;;31.27;12.47;;;8.30;99.90;;;;;;4095601;29;20035;-60
2024/02/12 07:50:42;;;;;;;35.37;13.03;;;8.30;99.90;;;;;;4095634;29;20027;-62
2024/02/12 07:52:43;;;;;;;32.43;13.53;;;8.30;99.90;;;;;;4096952;28;20043;-62
2024/02/12 07:54:44;;;;;;;34.13;14.60;;;8.20;99.90;;;;;;4095853;29;20039;-59
2024/02/12 07:56:47;;;;;;;34.03;13.90;;;8.30;99.90;;;;;;4096890;29;20050;-63
2024/02/12 07:58:49;;;;;;;30.27;12.73;;;8.40;99.90;;;;;;4095988;29;20019;-60
2024/02/12 08:00:50;;;;;;;30.40;12.17;;;8.40;99.90;;;;;;4096078;29;20035;-60
2024/02/12 08:02:53;;;;;;;28.83;11.70;;;8.40;99.90;;;;;;4096192;29;20039;-60
2024/02/12 08:04:54;;;;;;;31.50;13.80;;;8.30;99.90;;;;;;4096074;28;20132;-62
2024/02/12 08:06:57;;;;;;;35.10;12.60;;;8.20;99.90;;;;;;4096489;28;20086;-61
2024/02/12 08:08:58;;;;;;;29.03;13.60;;;8.10;99.90;;;;;;4095568;29;20035;-61
2024/02/12 08:10:59;;;;;;;40.27;13.93;;;8.10;99.90;;;;;;4096776;28;20039;-63
2024/02/12 08:13:01;;;;;;;34.17;12.60;;;8.10;99.90;;;;;;4095497;29;20039;-59
2024/02/12 08:15:03;;;;;;;29.07;12.90;;;8.10;99.90;;;;;;4096858;28;20035;-60
2024/02/12 08:17:05;;;;;;;32.60;12.60;;;8.00;99.90;;;;;;4095652;28;20039;-64
2024/02/12 08:19:06;;;;;;;27.37;13.07;;;8.00;99.90;;;;;;4096692;29;20436;-61
2024/02/12 08:21:07;;;;;;;38.57;13.23;;;8.00;99.90;;;;;;4095749;28;20707;-62
2024/02/12 08:23:08;;;;;;;29.40;13.33;;;8.10;99.90;;;;;;4096665;29;20146;-61
2024/02/12 08:25:10;;;;;;;35.53;12.77;;;8.20;99.90;;;;;;4095514;29;20078;-63
2024/02/12 08:27:11;;;;;;;29.03;12.77;;;8.30;99.90;;;;;;4096880;29;20039;-62
2024/02/12 08:29:12;;;;;;;28.27;12.30;;;8.40;99.90;;;;;;4095645;29;20098;-60
2024/02/12 08:31:17;;;;;;;23.97;11.80;;;8.50;99.90;;;;;;4095984;29;20063;-62
2024/02/12 08:33:18;;;;;;;30.23;11.07;;;8.60;99.90;;;;;;4096134;28;20047;-62
2024/02/12 08:35:20;;;;;;;36.47;12.67;;;8.60;99.90;;;;;;4099407;28;21514;-62
2024/02/12 08:37:22;;;;;;;27.20;11.83;;;8.70;99.90;;;;;;4099144;29;20468;-66
2024/02/12 08:39:23;;;;;;;23.03;10.63;;;8.80;99.90;;;;;;4098824;29;20023;-61
2024/02/12 08:41:25;;;;;;;23.00;10.30;;;8.90;99.90;;;;;;4099164;28;20114;-63
2024/02/12 08:43:27;;;;;;;28.73;11.57;;;9.00;99.90;;;;;;4098586;29;20483;-62
2024/02/12 08:45:28;;;;;;;27.10;10.57;;;9.00;99.90;;;;;;4099327;29;20043;-63
2024/02/12 08:47:30;;;;;;;29.40;10.50;;;9.00;99.90;;;;;;4098386;29;20027;-61
2024/02/12 08:49:31;;;;;;;20.47;10.37;;;9.10;99.90;;;;;;4099496;28;20039;-66
2024/02/12 08:51:33;;;;;;;19.53;10.57;;;9.10;99.90;;;;;;4098331;28;20436;-61
2024/02/12 08:53:39;;;;;;;23.77;11.53;;;9.10;99.90;;;;;;4099211;29;20139;-59
2024/02/12 08:55:40;;;;;;;25.90;11.67;;;9.10;99.90;;;;;;4098256;28;20559;-60
2024/02/12 08:57:42;;;;;;;28.27;12.60;;;9.20;99.90;;;;;;4099522;29;20090;-62
2024/02/12 08:59:44;;;;;;;30.60;13.20;;;9.20;99.90;;;;;;4097847;29;20031;-60
2024/02/12 09:01:45;;;;;;;36.43;15.47;;;9.20;99.90;;;;;;4098086;28;20515;-61
2024/02/12 09:03:47;;;;;;;31.70;13.63;;;9.20;99.90;;;;;;4098202;28;20047;-61
2024/02/12 09:05:48;;;;;;;27.97;11.93;;;9.30;99.90;;;;;;4098918;29;20090;-62
2024/02/12 09:07:50;;;;;;;27.60;11.17;;;9.30;99.90;;;;;;4098721;29;20062;-61
2024/02/12 09:09:51;;;;;;;26.27;12.53;;;9.40;99.90;;;;;;4098741;28;20440;-62
2024/02/12 09:11:52;;;;;;;30.67;12.73;;;9.50;99.90;;;;;;4098594;29;20306;-61
2024/02/12 09:13:53;;;;;;;37.97;14.87;;;9.50;99.90;;;;;;4097952;29;20821;-62
2024/02/12 09:15:56;;;;;;;36.50;15.80;;;9.40;99.90;;;;;;4098771;28;20070;-63
2024/02/12 09:17:58;;;;;;;38.23;17.90;;;9.30;99.90;;;;;;4097714;29;20071;-60
2024/02/12 09:20:00;;;;;;;54.07;21.97;;;9.40;99.90;;;;;;4098984;28;20051;-61
2024/02/12 09:22:03;;;;;;;48.93;21.90;;;9.50;99.90;;;;;;4097924;28;20040;-60
2024/02/12 09:24:05;;;;;;;38.20;18.57;;;9.50;99.90;;;;;;4098853;29;20160;-62
2024/02/12 09:26:06;;;;;;;42.57;19.67;;;9.50;99.90;;;;;;4097668;29;20082;-58
2024/02/12 09:28:07;;;;;;;35.83;16.30;;;9.70;99.90;;;;;;4099329;28;20083;-63
2024/02/12 09:30:11;;;;;;;37.63;17.00;;;9.80;99.90;;;;;;4097091;28;20507;-64
2024/02/12 09:32:13;;;;;;;40.90;16.67;;;9.90;99.90;;;;;;4098732;29;20148;-61
2024/02/12 09:34:15;;;;;;;35.87;16.03;;;10.00;99.90;;;;;;4097586;29;20475;-61
2024/02/12 09:36:18;;;;;;;31.73;14.57;;;10.10;99.90;;;;;;4098281;28;20435;-62
2024/02/12 09:38:19;;;;;;;30.30;14.43;;;10.50;99.90;;;;;;4097686;29;20024;-59
2024/02/12 09:40:21;;;;;;;30.70;12.43;;;10.90;99.90;;;;;;4098242;29;20027;-62
2024/02/12 09:42:25;;;;;;;16.33;8.10;;;11.10;99.90;;;;;;4098299;28;20039;-61
2024/02/12 09:44:29;;;;;;;15.10;5.77;;;11.30;99.90;;;;;;4098048;28;20039;-60
2024/02/12 09:46:35;;;;;;;22.10;9.13;;;11.40;99.90;;;;;;4097092;29;20023;-61
2024/02/12 09:48:36;;;;;;;21.87;9.80;;;11.40;99.90;;;;;;4097628;28;20031;-60
2024/02/12 09:50:39;;;;;;;21.50;8.67;;;11.40;99.90;;;;;;4098507;28;20110;-59
2024/02/12 09:52:44;;;;;;;16.23;7.00;;;11.50;99.90;;;;;;4097352;28;20098;-60
2024/02/12 09:54:46;;;;;;;16.93;7.90;;;11.40;99.90;;;;;;4098509;28;20051;-61
2024/02/12 09:56:48;;;;;;;11.27;6.63;;;11.40;99.90;;;;;;4097500;28;20044;-60
2024/02/12 09:58:49;;;;;;;25.10;8.17;;;11.40;99.90;;;;;;4098592;29;20424;-57
2024/02/12 10:00:50;;;;;;;10.83;7.20;;;11.30;99.90;;;;;;4096988;29;20574;-61
2024/02/12 10:02:53;;;;;;;22.73;7.80;;;11.40;99.90;;;;;;4098197;29;20035;-60
2024/02/12 10:04:54;;;;;;;17.00;8.00;;;11.40;99.90;;;;;;4097323;28;20586;-60
2024/02/12 10:06:56;;;;;;;16.90;8.03;;;11.40;99.90;;;;;;4098311;29;20087;-61
2024/02/12 10:09:08;;;;;;;13.57;6.57;;;11.40;99.90;;;;;;4097180;29;20027;-61
2024/02/12 10:11:09;;;;;;;10.53;6.13;;;11.50;99.90;;;;;;4097153;28;20431;-61
2024/02/12 10:13:11;;;;;;;13.73;5.70;;;11.70;99.90;;;;;;4096931;29;20487;-60
2024/02/12 10:15:13;;;;;;;13.90;5.97;;;12.00;99.90;;;;;;4097941;29;20027;-61
2024/02/12 10:17:15;;;;;;;12.67;5.27;;;12.10;99.90;;;;;;4097290;29;20090;-62
2024/02/12 10:19:17;;;;;;;8.93;3.67;;;12.20;99.90;;;;;;4097685;28;20094;-59
2024/02/12 10:21:22;;;;;;;12.97;4.67;;;12.20;99.90;;;;;;4097351;29;20880;-61
2024/02/12 10:23:23;;;;;;;19.87;6.40;;;12.30;99.90;;;;;;4097158;29;20097;-63
2024/02/12 10:25:24;;;;;;;13.10;5.23;;;12.50;99.90;;;;;;4097492;29;20035;-62
2024/02/12 10:27:26;;;;;;;11.63;5.27;;;12.50;99.90;;;;;;4097387;28;20435;-62
2024/02/12 10:29:27;;;;;;;13.73;5.53;;;12.40;99.90;;;;;;4098083;29;20082;-61
2024/02/12 10:31:29;;;;;;;10.93;5.23;;;12.50;99.90;;;;;;4096338;29;20059;-60
2024/02/12 10:33:33;;;;;;;16.40;6.20;;;12.60;99.90;;;;;;4097976;28;20054;-60
2024/02/12 10:35:39;;;;;;;24.50;7.10;;;12.60;99.90;;;;;;4096647;28;20035;-62
2024/02/12 10:37:40;;;;;;;14.37;6.50;;;12.50;99.90;;;;;;4097688;29;20050;-61
2024/02/12 10:39:45;;;;;;;16.07;6.73;;;12.50;99.90;;;;;;4096321;28;20644;-61
2024/02/12 10:41:50;;;;;;;11.47;6.57;;;12.70;99.90;;;;;;4097866;28;20047;-61
2024/02/12 10:43:53;;;;;;;14.43;6.20;;;12.80;99.90;;;;;;4096526;28;20082;-62